Storm Events Database

Event Details

Event Hail
Magnitude 1.00 in.
State TEXAS
County/Area COLLIN
WFO FWD
Begin Date 04/04/2008 02:40:00 CST-6
Begin Range 3
Begin Azimuth NW
Begin Location PLANO
Begin Lat/Lon 33.05/-96.75
End Date 04/04/2008 02:40:00 CST-6
Deaths Direct/Indirect 0/0 (fatality details below, when available...)
Injuries Direct/Indirect 0/0
Property Damage 0.00K
Crop Damage 0.00K
Episode Narrative Supercells tracked north Texas during the afternoon hours on the 3rd and continued through the morning hours of the 4th. Large hail to the size of softballs was reported across portions of the metroplex and towards the Red River.
Event Narrative


All events for this episode:

Location County/Zone St. Date Time T.Z. Type Mag Dth Inj PrD CrD
Totals: 0 0 471.00K 0.00K
RINGGOLD MONTAGUE CO. TX 04/03/2008 15:41 CST-6 Hail 1.75 in. 0 0 5.00K 0.00K
BELCHERVILLE MONTAGUE CO. TX 04/03/2008 15:50 CST-6 Hail 2.00 in. 0 0 5.00K 0.00K
NEWCASTLE YOUNG CO. TX 04/03/2008 16:34 CST-6 Hail 2.75 in. 0 0 20.00K 0.00K
PARK SPGS WISE CO. TX 04/03/2008 18:15 CST-6 Thunderstorm Wind 50 kts. EG 0 0 5.00K 0.00K
NOVICE LAMAR CO. TX 04/03/2008 19:10 CST-6 Thunderstorm Wind 56 kts. EG 0 0 5.00K 0.00K
BONHAM FANNIN CO. TX 04/03/2008 20:06 CST-6 Thunderstorm Wind 52 kts. EG 0 0 10.00K 0.00K
PARIS LAMAR CO. TX 04/03/2008 20:16 CST-6 Hail 1.75 in. 0 0 10.00K 0.00K
PARKS LAMAR CO. TX 04/03/2008 20:26 CST-6 Hail 0.75 in. 0 0 0.00K 0.00K
PARKS LAMAR CO. TX 04/03/2008 20:35 CST-6 Thunderstorm Wind 52 kts. EG 0 0 0.00K 0.00K
MOSSVILLE COOKE CO. TX 04/03/2008 22:46 CST-6 Hail 1.00 in. 0 0 0.00K 0.00K
MOSSVILLE COOKE CO. TX 04/03/2008 22:50 CST-6 Hail 1.25 in. 0 0 0.00K 0.00K
OLNEY YOUNG CO. TX 04/03/2008 22:54 CST-6 Hail 1.75 in. 0 0 10.00K 0.00K
LINDSAY COOKE CO. TX 04/03/2008 22:55 CST-6 Hail 2.75 in. 0 0 25.00K 0.00K
ANTELOPE JACK CO. TX 04/03/2008 23:12 CST-6 Hail 0.88 in. 0 0 0.00K 0.00K
DECATUR WISE CO. TX 04/04/2008 00:00 CST-6 Hail 4.25 in. 0 0 40.00K 0.00K
BLUETT WISE CO. TX 04/04/2008 00:10 CST-6 Hail 1.75 in. 0 0 5.00K 0.00K
BOLIVAR DENTON CO. TX 04/04/2008 00:20 CST-6 Hail 1.75 in. 0 0 20.00K 0.00K
DENTON DENTON CO. TX 04/04/2008 00:29 CST-6 Hail 2.50 in. 0 0 50.00K 0.00K
DENTON DENTON CO. TX 04/04/2008 00:31 CST-6 Hail 1.75 in. 0 0 25.00K 0.00K
DENTON DENTON CO. TX 04/04/2008 00:35 CST-6 Thunderstorm Wind 56 kts. EG 0 0 20.00K 0.00K
DENTON DENTON CO. TX 04/04/2008 00:35 CST-6 Thunderstorm Wind 56 kts. EG 0 0 200.00K 0.00K
AUBREY DENTON CO. TX 04/04/2008 00:42 CST-6 Hail 1.75 in. 0 0 0.00K 0.00K
MCKINNEY COLLIN CO. TX 04/04/2008 01:15 CST-6 Hail 1.75 in. 0 0 10.00K 0.00K
COMMERCE HUNT CO. TX 04/04/2008 02:00 CST-6 Hail 0.75 in. 0 0 0.00K 0.00K
GRAPEVINE RES DENTON CO. TX 04/04/2008 02:10 CST-6 Hail 1.00 in. 0 0 0.00K 0.00K
GRAPEVINE RES DENTON CO. TX 04/04/2008 02:18 CST-6 Hail 1.00 in. 0 0 0.00K 0.00K
LEWISVILLE DENTON CO. TX 04/04/2008 02:19 CST-6 Hail 1.00 in. 0 0 0.00K 0.00K
PLANO COLLIN CO. TX 04/04/2008 02:40 CST-6 Hail 1.00 in. 0 0 0.00K 0.00K
ALLEN COLLIN CO. TX 04/04/2008 02:50 CST-6 Hail 1.00 in. 0 0 0.00K 0.00K
CAMPBELL HUNT CO. TX 04/04/2008 03:07 CST-6 Hail 1.00 in. 0 0 0.00K 0.00K
MINERAL HGTS HUNT CO. TX 04/04/2008 03:19 CST-6 Hail 1.00 in. 0 0 0.00K 0.00K
SULPHUR SPGS HOPKINS CO. TX 04/04/2008 03:45 CST-6 Thunderstorm Wind 56 kts. EG 0 0 1.00K 0.00K
GRANDVIEW JOHNSON CO. TX 04/04/2008 04:40 CST-6 Hail 0.88 in. 0 0 0.00K 0.00K
HEARNE ROBERTSON CO. TX 04/04/2008 07:34 CST-6 Hail 1.00 in. 0 0 0.00K 0.00K
MOODY MCLENNAN CO. TX 04/04/2008 07:56 CST-6 Hail 0.88 in. 0 0 0.00K 0.00K
HEWITT MCLENNAN CO. TX 04/04/2008 08:10 CST-6 Hail 1.75 in. 0 0 5.00K 0.00K
Totals: 0 0 471.00K 0.00K